プラハ の空港の天気 - METARとTAF

ルズィニエ国際空港(プラハ) ( LKPR / PRG ) - チェコ プラハ
飛行場実況気象(Metar)
観測時間11/15 17:00 CET (11/15 16:00 UTC)
風向・風速不定 1m/s
視程3500m
天気現象散在した霧 もや
少しの雲 雲底高度 30m
気温1℃
湿度100%
気圧1029hPa
METARLKPR 151600Z VRB01KT 3500 0700W R24/P2000N R30/P2000N BR BCFG FEW001 01/01 Q1029 NOSIG
過去の天気等 Google飛行場航空写真 Wunderground天気予報

過去48時間のMETAR

飛行場予報(TAF)
発表時間: 11/15 14:44 CET (11/15 13:44 UTC)
予報対象時間: 15日14時 CET ~ 16日19時 CET
風向・風速北 3m/s
視程400m
天気現象
全天の4割程度の雲 雲底高度 60m
15日14時 CET ~ 15日18時 CET に一時的に
視程1500m
天気現象もや
16日9時 CET ~ 16日11時 CET に徐々に
視程10km以上
なし
TAF AMD LKPR 151344Z 1513/1618 36006KT 0400 FG SCT002
TEMPO 1513/1517 1500 BR
BECMG 1608/1610 CAVOK